Terminal Aerodrome Forecast
Issued by NWS Sterling, VA

Current Version | Previous Version | Graphics & Text | Print | Product List | Glossary On
Versions: 1 2 3 4 5 6 7 8 9 10 11 12 13 14 15 16 17 18 19 20 21 22 23 24 25 26 27 28 29 30 31 32
000
FTUS41 KLWX 260539
TAFIAD
TAF
KIAD 260539Z 2606/2712 09009KT P6SM OVC070
     FM260900 09007KT P6SM OVC020
     FM261100 09007KT P6SM OVC008
     FM261500 10008KT 3SM -DZ BKN008
     FM270500 15006KT 3SM -DZ OVC010=

USA.gov is the U.S. government's official web portal to all federal, state and local government web resources and services.